createdAt,value
2022-10-19T00:01:20.996Z,7.53
2022-10-19T00:03:52.061Z,8.00
2022-10-19T00:06:25.890Z,9.10
2022-10-19T00:08:55.207Z,7.07
2022-10-19T00:11:24.773Z,11.10
2022-10-19T00:13:53.293Z,8.67
2022-10-19T00:16:22.597Z,8.83
2022-10-19T00:18:51.099Z,11.00
2022-10-19T00:21:21.699Z,7.37
2022-10-19T00:23:50.253Z,7.03
2022-10-19T00:26:18.776Z,7.03
2022-10-19T00:28:47.246Z,6.20
2022-10-19T00:31:18.512Z,7.33
2022-10-19T00:33:47.842Z,8.93
2022-10-19T00:36:18.887Z,10.03
2022-10-19T00:38:49.265Z,7.10
2022-10-19T00:41:19.582Z,6.73
2022-10-19T00:43:58.349Z,6.83
2022-10-19T00:46:28.259Z,7.33
2022-10-19T00:49:01.452Z,10.03
2022-10-19T00:51:33.222Z,7.17
2022-10-19T00:54:04.873Z,7.73
2022-10-19T00:56:34.577Z,10.50
2022-10-19T00:59:05.020Z,9.00
2022-10-19T01:01:35.196Z,7.40
2022-10-19T01:04:06.075Z,7.03
2022-10-19T01:06:35.338Z,9.13
2022-10-19T01:09:05.188Z,7.27
2022-10-19T01:11:47.197Z,7.13
2022-10-19T01:14:30.126Z,7.37
2022-10-19T01:17:11.114Z,7.17
2022-10-19T01:20:08.724Z,7.80
2022-10-19T01:23:01.211Z,7.90
2022-10-19T01:25:47.494Z,9.03
2022-10-19T01:28:34.094Z,7.00
2022-10-19T01:31:09.980Z,7.97
2022-10-19T01:33:48.774Z,13.50
2022-10-19T01:36:25.145Z,6.73
2022-10-19T01:39:02.070Z,10.90
2022-10-19T01:41:37.658Z,7.17
2022-10-19T01:44:14.543Z,9.97
2022-10-19T01:46:48.706Z,12.13
2022-10-19T01:49:21.737Z,12.83
2022-10-19T01:51:55.926Z,15.90
2022-10-19T01:54:26.229Z,14.40
2022-10-19T01:56:57.645Z,12.53
2022-10-19T01:59:26.903Z,15.97
2022-10-19T02:01:58.493Z,16.03
2022-10-19T02:04:27.673Z,17.27
2022-10-19T02:06:57.055Z,11.40
2022-10-19T02:09:25.333Z,15.57
2022-10-19T02:11:58.074Z,10.90
2022-10-19T02:14:31.352Z,11.13
2022-10-19T02:17:06.286Z,10.33
2022-10-19T02:19:34.619Z,8.67
2022-10-19T02:22:03.722Z,8.60
2022-10-19T02:24:32.001Z,8.47
2022-10-19T02:27:01.730Z,8.50
2022-10-19T02:29:30.209Z,8.13
2022-10-19T02:32:00.006Z,8.00
2022-10-19T02:34:28.754Z,8.40
2022-10-19T02:36:57.279Z,10.47
2022-10-19T02:39:25.931Z,8.53
2022-10-19T02:42:00.498Z,12.93
2022-10-19T02:44:32.926Z,7.87
2022-10-19T02:47:08.085Z,10.17
2022-10-19T02:49:37.941Z,8.17
2022-10-19T02:52:09.194Z,7.40
2022-10-19T02:54:37.820Z,10.60
2022-10-19T02:57:16.671Z,7.70
2022-10-19T02:59:44.996Z,11.10
2022-10-19T03:02:15.007Z,7.57
2022-10-19T03:04:44.669Z,8.77
2022-10-19T03:07:15.748Z,8.03
2022-10-19T03:09:44.422Z,12.17
2022-10-19T03:12:13.477Z,7.50
2022-10-19T03:14:41.831Z,7.97
2022-10-19T03:17:10.379Z,8.27
2022-10-19T03:19:40.034Z,7.33
2022-10-19T03:22:08.331Z,12.53
2022-10-19T03:24:37.124Z,8.00
2022-10-19T03:27:05.406Z,11.67
2022-10-19T03:29:33.623Z,8.90
2022-10-19T03:32:01.834Z,8.43
2022-10-19T03:34:30.386Z,11.03
2022-10-19T03:36:59.956Z,10.50
2022-10-19T03:39:28.347Z,12.77
2022-10-19T03:41:56.615Z,13.77
2022-10-19T03:44:24.820Z,13.53
2022-10-19T03:46:53.165Z,14.17
2022-10-19T03:49:21.619Z,14.50
2022-10-19T03:51:49.813Z,13.57
2022-10-19T03:54:20.641Z,13.53
2022-10-19T03:56:51.871Z,13.37
2022-10-19T03:59:20.054Z,14.37
2022-10-19T04:01:48.422Z,13.70
2022-10-19T04:04:19.588Z,13.80
2022-10-19T04:06:50.895Z,13.20
2022-10-19T04:09:23.106Z,14.13
2022-10-19T04:11:52.088Z,15.03
2022-10-19T04:14:32.874Z,14.53
2022-10-19T04:17:07.413Z,16.53
2022-10-19T04:19:35.623Z,15.33
2022-10-19T04:22:03.943Z,14.93
2022-10-19T04:24:33.508Z,15.57
2022-10-19T04:27:01.716Z,15.70
2022-10-19T04:29:30.887Z,15.57
2022-10-19T04:31:59.897Z,16.70
2022-10-19T04:34:28.288Z,15.93
2022-10-19T04:36:59.345Z,15.90
2022-10-19T04:39:27.844Z,15.67
2022-10-19T04:41:57.435Z,14.40
2022-10-19T04:44:25.656Z,15.87
2022-10-19T04:46:53.855Z,16.73
2022-10-19T04:49:22.141Z,15.33
2022-10-19T04:51:50.402Z,16.83
2022-10-19T04:54:18.611Z,14.57
2022-10-19T04:56:46.819Z,14.97
2022-10-19T04:59:16.490Z,15.07
2022-10-19T05:01:47.302Z,15.40
2022-10-19T05:04:15.804Z,14.60
2022-10-19T05:06:44.055Z,13.93
2022-10-19T05:09:12.685Z,13.97
2022-10-19T05:11:40.932Z,16.17
2022-10-19T05:14:09.150Z,14.27
2022-10-19T05:16:38.983Z,15.77
2022-10-19T05:19:07.440Z,15.50
2022-10-19T05:21:35.676Z,14.67
2022-10-19T05:24:03.948Z,15.90
2022-10-19T05:26:32.339Z,15.73
2022-10-19T05:29:04.377Z,15.47
2022-10-19T05:31:34.840Z,15.90
2022-10-19T05:34:05.208Z,16.07
2022-10-19T05:36:36.801Z,15.50
2022-10-19T05:39:07.964Z,15.50
2022-10-19T05:41:36.311Z,16.47
2022-10-19T05:44:06.961Z,15.93
2022-10-19T05:46:35.850Z,15.47
2022-10-19T05:49:05.468Z,14.50
2022-10-19T05:51:33.711Z,14.63
2022-10-19T05:54:01.947Z,14.40
2022-10-19T05:56:33.302Z,15.83
2022-10-19T05:59:04.716Z,15.43
2022-10-19T06:01:34.375Z,16.53
2022-10-19T06:04:05.743Z,14.00
2022-10-19T06:06:34.276Z,15.10
2022-10-19T06:09:02.547Z,15.60
2022-10-19T06:11:34.541Z,15.03
2022-10-19T06:14:05.291Z,14.63
2022-10-19T06:16:34.602Z,13.80
2022-10-19T06:19:04.950Z,14.90
2022-10-19T06:21:34.755Z,14.97
2022-10-19T06:24:06.472Z,14.50
2022-10-19T06:26:36.109Z,13.37
2022-10-19T06:29:05.382Z,14.07
2022-10-19T06:31:36.407Z,15.00
2022-10-19T06:34:06.566Z,13.43
2022-10-19T06:36:35.516Z,12.80
2022-10-19T06:39:03.852Z,13.17
2022-10-19T06:41:34.217Z,14.60
2022-10-19T06:44:02.472Z,13.27
2022-10-19T06:46:32.254Z,15.60
2022-10-19T06:49:02.672Z,13.23
2022-10-19T06:51:34.086Z,14.50
2022-10-19T06:54:02.636Z,14.07
2022-10-19T06:56:30.879Z,14.10
2022-10-19T06:59:00.191Z,15.20
2022-10-19T07:01:28.537Z,14.37
2022-10-19T07:03:56.922Z,15.10
2022-10-19T07:06:27.468Z,14.40
2022-10-19T07:08:57.097Z,14.23
2022-10-19T07:11:25.330Z,14.43
2022-10-19T07:13:54.550Z,13.60
2022-10-19T07:16:23.344Z,16.43
2022-10-19T07:18:53.354Z,13.83
2022-10-19T07:21:24.023Z,14.30
2022-10-19T07:23:52.679Z,13.57
2022-10-19T07:26:26.637Z,14.80
2022-10-19T07:28:57.462Z,14.90
2022-10-19T07:31:28.079Z,13.37
2022-10-19T07:33:58.220Z,13.73
2022-10-19T07:36:28.092Z,14.23
2022-10-19T07:38:56.635Z,14.07
2022-10-19T07:41:27.414Z,14.20
2022-10-19T07:43:57.862Z,13.57
2022-10-19T07:46:29.115Z,13.17
2022-10-19T07:48:57.530Z,12.30
2022-10-19T07:51:25.946Z,12.67
2022-10-19T07:53:54.669Z,12.53
2022-10-19T07:56:27.655Z,11.23
2022-10-19T07:58:58.738Z,11.13
2022-10-19T08:01:30.913Z,10.70
2022-10-19T08:06:50.130Z,10.67
2022-10-19T08:09:47.376Z,14.70
2022-10-19T08:12:11.169Z,12.33
2022-10-19T08:14:43.000Z,11.93
2022-10-19T08:17:16.557Z,11.93
2022-10-19T08:19:44.982Z,12.00
2022-10-19T08:22:13.545Z,11.30
2022-10-19T08:24:41.796Z,11.97
2022-10-19T08:27:11.429Z,11.93
2022-10-19T08:29:39.620Z,10.03
2022-10-19T08:32:07.884Z,9.37
2022-10-19T08:34:36.258Z,9.13
2022-10-19T08:37:14.612Z,11.13
2022-10-19T08:39:53.213Z,10.10
2022-10-19T08:42:30.505Z,9.13
2022-10-19T08:45:34.601Z,10.70
2022-10-19T08:48:24.224Z,9.13
2022-10-19T08:50:53.493Z,8.27
2022-10-19T08:53:37.234Z,10.27
2022-10-19T08:56:39.027Z,10.07
2022-10-19T08:59:15.663Z,9.07
2022-10-19T09:01:52.230Z,8.40
2022-10-19T09:04:25.491Z,8.43
2022-10-19T09:07:09.048Z,8.63
2022-10-19T09:09:44.081Z,8.97
2022-10-19T09:12:19.926Z,9.20
2022-10-19T09:14:58.574Z,7.93
2022-10-19T09:17:27.086Z,8.70
2022-10-19T09:19:55.424Z,8.00
2022-10-19T09:22:28.952Z,8.00
2022-10-19T09:25:03.456Z,8.03
2022-10-19T09:27:38.687Z,7.93
2022-10-19T09:30:18.602Z,6.90
2022-10-19T09:32:47.395Z,7.60
2022-10-19T09:35:27.662Z,6.77
2022-10-19T09:37:57.099Z,8.20
2022-10-19T09:40:28.576Z,7.53
2022-10-19T09:43:08.762Z,8.00
2022-10-19T09:45:49.853Z,7.37
2022-10-19T09:48:30.995Z,7.10
2022-10-19T09:51:02.078Z,7.33
2022-10-19T09:53:31.327Z,7.43
2022-10-19T09:56:06.376Z,7.00
2022-10-19T09:58:35.800Z,7.17
2022-10-19T10:01:05.719Z,6.03
2022-10-19T10:03:39.426Z,6.10
2022-10-19T10:06:10.110Z,6.73
2022-10-19T10:08:40.770Z,6.63
2022-10-19T10:11:24.750Z,6.10
2022-10-19T10:13:58.492Z,6.10
2022-10-19T10:16:33.094Z,5.27
2022-10-19T10:21:55.715Z,5.13
2022-10-19T10:24:26.053Z,7.63
2022-10-19T10:26:57.107Z,5.77
2022-10-19T10:29:28.364Z,6.70
2022-10-19T10:32:02.623Z,4.83
2022-10-19T10:34:49.555Z,4.70
2022-10-19T10:37:24.876Z,5.27
2022-10-19T10:39:56.834Z,4.93
2022-10-19T10:42:32.586Z,4.87
2022-10-19T10:45:01.993Z,5.13
2022-10-19T10:47:32.852Z,3.70
2022-10-19T10:50:06.409Z,4.00
2022-10-19T10:52:36.690Z,3.90
2022-10-19T10:55:18.331Z,3.60
2022-10-19T10:57:51.193Z,4.03
2022-10-19T11:00:22.376Z,4.10
2022-10-19T11:02:58.222Z,3.73
2022-10-19T11:05:29.815Z,3.50
2022-10-19T11:08:05.076Z,3.90
2022-10-19T11:10:38.426Z,3.40
2022-10-19T11:13:16.209Z,3.83
2022-10-19T11:15:54.306Z,3.27
2022-10-19T11:18:30.651Z,4.57
2022-10-19T11:21:07.630Z,3.20
2022-10-19T11:23:49.339Z,3.40
2022-10-19T11:26:36.710Z,3.70
2022-10-19T11:29:26.296Z,4.40
2022-10-19T11:31:56.429Z,3.77
2022-10-19T11:34:44.717Z,3.80
2022-10-19T11:37:23.715Z,3.00
2022-10-19T11:40:05.165Z,5.30
2022-10-19T11:42:48.869Z,2.93
2022-10-19T11:45:31.727Z,4.77
2022-10-19T11:48:26.257Z,3.40
2022-10-19T11:51:17.444Z,2.80
2022-10-19T11:54:04.756Z,2.80
2022-10-19T11:57:01.833Z,3.23
2022-10-19T11:59:41.823Z,3.20
2022-10-19T12:02:28.323Z,3.07
2022-10-19T12:04:58.896Z,4.23
2022-10-19T12:07:57.787Z,3.50
2022-10-19T12:10:33.644Z,3.67
2022-10-19T12:13:05.176Z,4.83
2022-10-19T12:15:39.358Z,4.20
2022-10-19T12:18:15.840Z,3.50
2022-10-19T12:20:49.086Z,4.90
2022-10-19T12:23:27.938Z,3.93
2022-10-19T12:25:59.343Z,4.40
2022-10-19T12:28:32.835Z,4.70
2022-10-19T12:31:03.885Z,5.10
2022-10-19T12:33:47.246Z,4.60
2022-10-19T12:36:28.091Z,4.40
2022-10-19T12:39:09.505Z,5.10
2022-10-19T12:41:46.363Z,5.83
2022-10-19T12:45:06.738Z,5.30
2022-10-19T12:47:35.619Z,4.43
2022-10-19T12:50:04.654Z,5.43
2022-10-19T12:52:45.522Z,5.00
2022-10-19T12:55:34.873Z,4.30
2022-10-19T12:58:17.373Z,4.30
2022-10-19T13:01:00.035Z,4.00
2022-10-19T13:03:34.666Z,5.63
2022-10-19T13:06:10.499Z,5.77
2022-10-19T13:08:44.815Z,4.80
2022-10-19T13:11:16.238Z,4.43
2022-10-19T13:14:06.748Z,4.57
2022-10-19T13:17:08.033Z,3.70
2022-10-19T13:19:36.734Z,2.93
2022-10-19T13:22:28.465Z,3.00
2022-10-19T13:25:30.599Z,3.27
2022-10-19T13:28:03.812Z,3.77
2022-10-19T13:31:06.226Z,3.73
2022-10-19T13:33:49.618Z,5.40
2022-10-19T13:36:18.792Z,6.10
2022-10-19T13:38:50.141Z,3.67
2022-10-19T13:41:21.967Z,3.50
2022-10-19T13:44:35.536Z,3.80
2022-10-19T13:47:31.878Z,5.83
2022-10-19T13:50:26.235Z,4.43
2022-10-19T13:53:26.119Z,3.60
2022-10-19T13:56:46.006Z,3.67
2022-10-19T13:59:40.653Z,3.73
2022-10-19T14:03:05.397Z,3.60
2022-10-19T14:06:14.717Z,3.60
2022-10-19T14:09:24.680Z,3.87
2022-10-19T14:11:55.215Z,5.13
2022-10-19T14:14:25.995Z,3.50
2022-10-19T14:17:01.497Z,4.20
2022-10-19T14:19:43.550Z,3.63
2022-10-19T14:22:31.045Z,3.80
2022-10-19T14:25:05.789Z,3.67
2022-10-19T14:27:36.515Z,3.43
2022-10-19T14:30:07.371Z,3.80
2022-10-19T14:32:37.293Z,4.33
2022-10-19T14:35:17.624Z,4.53
2022-10-19T14:37:46.558Z,4.37
2022-10-19T14:40:32.716Z,4.00
2022-10-19T14:43:02.714Z,5.30
2022-10-19T14:45:32.982Z,5.03
2022-10-19T14:48:06.309Z,4.67
2022-10-19T14:50:42.466Z,4.50
2022-10-19T14:53:35.482Z,4.40
2022-10-19T14:56:08.667Z,5.53
2022-10-19T14:58:41.267Z,5.63
2022-10-19T15:01:11.046Z,5.57
2022-10-19T15:03:44.255Z,4.33
2022-10-19T15:06:21.058Z,4.13
2022-10-19T15:11:30.135Z,4.90
2022-10-19T15:14:03.151Z,4.83
2022-10-19T15:16:36.247Z,6.47
2022-10-19T15:19:12.121Z,9.00
2022-10-19T15:21:40.427Z,4.60
2022-10-19T15:24:22.707Z,4.20
2022-10-19T15:27:08.590Z,4.03
2022-10-19T15:29:37.693Z,3.37
2022-10-19T15:32:17.639Z,3.80
2022-10-19T15:34:47.775Z,4.40
2022-10-19T15:37:21.566Z,4.40
2022-10-19T15:39:50.737Z,4.63
2022-10-19T15:42:37.605Z,3.20
2022-10-19T15:45:31.305Z,3.90
2022-10-19T15:48:27.797Z,4.30
2022-10-19T15:50:58.437Z,4.93
2022-10-19T15:53:27.637Z,3.67
2022-10-19T15:55:55.988Z,5.50
2022-10-19T15:58:24.309Z,4.73
2022-10-19T16:00:52.552Z,3.73
2022-10-19T16:03:20.787Z,4.13
2022-10-19T16:05:49.053Z,4.10
2022-10-19T16:08:18.676Z,4.77
2022-10-19T16:10:46.868Z,3.90
2022-10-19T16:13:15.072Z,5.00
2022-10-19T16:15:43.279Z,4.40
2022-10-19T16:18:12.740Z,4.13
2022-10-19T16:20:41.958Z,5.40
2022-10-19T16:23:12.648Z,6.00
2022-10-19T16:25:42.344Z,4.70
2022-10-19T16:28:10.551Z,4.80
2022-10-19T16:30:39.011Z,5.87
2022-10-19T16:33:07.403Z,7.97
2022-10-19T16:35:35.637Z,6.67
2022-10-19T16:38:04.151Z,4.93
2022-10-19T16:40:32.648Z,6.90
2022-10-19T16:43:02.267Z,6.40
2022-10-19T16:45:31.084Z,6.17
2022-10-19T16:47:59.527Z,10.87
2022-10-19T16:50:27.794Z,7.50
2022-10-19T16:53:07.151Z,6.50
2022-10-19T16:55:35.471Z,9.63
2022-10-19T16:58:05.313Z,9.50
2022-10-19T17:00:34.339Z,8.37
2022-10-19T17:03:02.610Z,10.87
2022-10-19T17:05:30.909Z,7.63
2022-10-19T17:08:00.412Z,7.63
2022-10-19T17:10:28.808Z,7.23
2022-10-19T17:12:57.125Z,8.17
2022-10-19T17:15:43.433Z,11.40
2022-10-19T17:18:11.970Z,6.73
2022-10-19T17:20:40.300Z,6.70
2022-10-19T17:23:08.567Z,6.57
2022-10-19T17:25:36.922Z,5.37
2022-10-19T17:28:05.199Z,6.90
2022-10-19T17:30:34.899Z,12.17
2022-10-19T17:33:03.191Z,12.43
2022-10-19T17:35:31.441Z,16.30
2022-10-19T17:37:59.672Z,15.77
2022-10-19T17:40:27.968Z,12.67
2022-10-19T17:42:56.268Z,15.30
2022-10-19T17:45:24.597Z,14.27
2022-10-19T17:47:54.252Z,17.67
2022-10-19T17:50:22.505Z,15.10
2022-10-19T17:52:50.943Z,12.40
2022-10-19T17:55:19.394Z,14.97
2022-10-19T17:57:48.136Z,17.27
2022-10-19T18:00:16.772Z,18.20
2022-10-19T18:02:46.419Z,15.30
2022-10-19T18:05:16.213Z,14.40
2022-10-19T18:07:45.843Z,13.63
2022-10-19T18:10:15.483Z,16.17
2022-10-19T18:12:43.772Z,12.10
2022-10-19T18:15:12.151Z,11.10
2022-10-19T18:17:40.452Z,14.70
2022-10-19T18:20:10.533Z,14.90
2022-10-19T18:22:40.206Z,18.00
2022-10-19T18:25:09.535Z,9.10
2022-10-19T18:27:37.945Z,11.03
2022-10-19T18:30:09.249Z,9.03
2022-10-19T18:32:37.730Z,13.27
2022-10-19T18:35:06.976Z,12.90
2022-10-19T18:37:35.234Z,16.03
2022-10-19T18:40:05.389Z,15.00
2022-10-19T18:42:33.938Z,15.73
2022-10-19T18:45:03.275Z,14.43
2022-10-19T18:47:31.569Z,18.23
2022-10-19T18:49:59.832Z,15.77
2022-10-19T18:52:28.167Z,14.53
2022-10-19T18:54:56.421Z,15.27
2022-10-19T18:57:30.826Z,16.07
2022-10-19T19:00:00.003Z,13.93
2022-10-19T19:02:42.222Z,11.40
2022-10-19T19:05:14.614Z,11.10
2022-10-19T19:07:42.947Z,11.33
2022-10-19T19:10:11.237Z,11.20
2022-10-19T19:12:41.644Z,9.23
2022-10-19T19:15:11.029Z,10.40
2022-10-19T19:17:39.990Z,10.07
2022-10-19T19:20:09.632Z,10.60
2022-10-19T19:22:38.245Z,9.53
2022-10-19T19:25:07.734Z,10.43
2022-10-19T19:27:36.088Z,8.50
2022-10-19T19:30:06.790Z,8.83
2022-10-19T19:32:36.460Z,7.80
2022-10-19T19:35:05.419Z,8.67
2022-10-19T19:37:34.151Z,7.60
2022-10-19T19:40:02.677Z,7.17
2022-10-19T19:42:30.995Z,11.10
2022-10-19T19:44:59.299Z,11.47
2022-10-19T19:47:28.917Z,11.10
2022-10-19T19:49:57.163Z,12.07
2022-10-19T19:52:25.476Z,11.00
2022-10-19T19:54:53.790Z,15.33
2022-10-19T19:57:22.567Z,11.30
2022-10-19T19:59:50.880Z,10.63
2022-10-19T20:02:19.158Z,11.37
2022-10-19T20:04:48.860Z,9.13
2022-10-19T20:07:17.219Z,8.50
2022-10-19T20:09:45.523Z,10.30
2022-10-19T20:12:13.790Z,8.93
2022-10-19T20:14:42.010Z,8.53
2022-10-19T20:17:10.303Z,8.80
2022-10-19T20:19:38.690Z,7.83
2022-10-19T20:22:08.378Z,8.70
2022-10-19T20:24:37.775Z,9.50
2022-10-19T20:27:06.274Z,8.80
2022-10-19T20:29:34.749Z,10.17
2022-10-19T20:32:03.240Z,7.40
2022-10-19T20:34:31.572Z,12.03
2022-10-19T20:36:59.868Z,8.57
2022-10-19T20:39:29.902Z,9.63
2022-10-19T20:41:58.311Z,7.67
2022-10-19T20:44:26.758Z,8.13
2022-10-19T20:46:55.040Z,7.77
2022-10-19T20:49:23.533Z,7.33
2022-10-19T20:51:55.200Z,7.97
2022-10-19T20:54:23.640Z,7.60
2022-10-19T20:56:53.321Z,7.87
2022-10-19T20:59:25.272Z,7.07
2022-10-19T21:01:55.619Z,8.20
2022-10-19T21:04:25.976Z,7.73
2022-10-19T21:06:54.552Z,6.03
2022-10-19T21:09:26.002Z,5.93
2022-10-19T21:11:55.683Z,5.67
2022-10-19T21:14:28.388Z,5.90
2022-10-19T21:16:57.566Z,8.43
2022-10-19T21:19:28.858Z,12.37
2022-10-19T21:22:01.644Z,9.83
2022-10-19T21:24:33.186Z,8.63
2022-10-19T21:27:05.627Z,9.37
2022-10-19T21:29:34.779Z,9.87
2022-10-19T21:32:03.524Z,9.57
2022-10-19T21:34:33.254Z,8.53
2022-10-19T21:37:01.700Z,9.80
2022-10-19T21:39:29.953Z,10.17
2022-10-19T21:41:58.266Z,10.43
2022-10-19T21:44:27.986Z,10.53
2022-10-19T21:46:56.253Z,9.73
2022-10-19T21:49:24.472Z,9.80
2022-10-19T21:51:55.143Z,10.17
2022-10-19T21:54:26.160Z,12.97
2022-10-19T21:56:55.768Z,10.40
2022-10-19T21:59:24.022Z,11.43
2022-10-19T22:01:54.620Z,13.00
2022-10-19T22:04:23.870Z,17.23
2022-10-19T22:06:52.098Z,11.73
2022-10-19T22:09:22.523Z,11.37
2022-10-19T22:11:50.834Z,10.87
2022-10-19T22:14:19.728Z,10.97
2022-10-19T22:16:47.973Z,13.17
2022-10-19T22:19:17.633Z,11.17
2022-10-19T22:21:45.813Z,11.13
2022-10-19T22:24:16.622Z,10.60
2022-10-19T22:26:47.745Z,12.30
2022-10-19T22:29:16.471Z,13.30
2022-10-19T22:31:45.796Z,11.37
2022-10-19T22:34:18.838Z,11.30
2022-10-19T22:36:47.193Z,12.00
2022-10-19T22:39:16.427Z,15.80
2022-10-19T22:41:44.723Z,11.57
2022-10-19T22:44:13.083Z,12.17
2022-10-19T22:46:41.359Z,12.80
2022-10-19T22:49:10.109Z,11.90
2022-10-19T22:51:39.741Z,12.77
2022-10-19T22:54:07.988Z,11.47
2022-10-19T22:56:36.610Z,11.40
2022-10-19T22:59:07.476Z,13.60
2022-10-19T23:01:37.339Z,11.83
2022-10-19T23:04:05.891Z,12.10
2022-10-19T23:06:34.486Z,12.67
2022-10-19T23:09:04.283Z,12.67
2022-10-19T23:11:32.551Z,11.90
2022-10-19T23:14:00.852Z,13.23
2022-10-19T23:16:29.173Z,12.87
2022-10-19T23:18:57.489Z,12.57
2022-10-19T23:21:25.729Z,13.37
2022-10-19T23:23:53.951Z,13.33
2022-10-19T23:26:24.791Z,12.80
2022-10-19T23:28:53.592Z,12.80
2022-10-19T23:31:25.388Z,13.23
2022-10-19T23:33:54.641Z,14.87
2022-10-19T23:36:26.810Z,13.37
2022-10-19T23:38:56.580Z,13.53
2022-10-19T23:41:26.634Z,13.03
2022-10-19T23:43:54.979Z,13.73
2022-10-19T23:46:23.218Z,13.50
2022-10-19T23:48:51.437Z,12.97
2022-10-19T23:51:22.183Z,14.47
2022-10-19T23:53:52.594Z,12.77
2022-10-19T23:56:23.134Z,12.57
2022-10-19T23:58:54.048Z,14.47
